sensor_id;sensor_type;location;lat;lon;timestamp;pressure;altitude;pressure_sealevel;temperature;humidity
10064;BME280;5071;52.360;13.134;2022-10-26T00:02:46;101403.59;;;6.85;100.00
10064;BME280;5071;52.360;13.134;2022-10-26T00:07:49;101412.28;;;6.78;100.00
10064;BME280;5071;52.360;13.134;2022-10-26T00:12:52;101405.22;;;6.74;100.00
10064;BME280;5071;52.360;13.134;2022-10-26T00:17:54;101411.28;;;6.70;100.00
10064;BME280;5071;52.360;13.134;2022-10-26T00:22:56;101413.00;;;6.68;100.00
10064;BME280;5071;52.360;13.134;2022-10-26T00:27:59;101411.91;;;6.52;100.00
10064;BME280;5071;52.360;13.134;2022-10-26T00:33:02;101417.25;;;6.56;100.00
10064;BME280;5071;52.360;13.134;2022-10-26T00:38:03;101428.59;;;6.51;100.00
10064;BME280;5071;52.360;13.134;2022-10-26T00:43:14;101421.34;;;6.37;100.00
10064;BME280;5071;52.360;13.134;2022-10-26T00:48:22;101428.41;;;6.38;100.00
10064;BME280;5071;52.360;13.134;2022-10-26T00:53:26;101424.91;;;6.39;100.00
10064;BME280;5071;52.360;13.134;2022-10-26T00:58:29;101410.84;;;6.39;100.00
10064;BME280;5071;52.360;13.134;2022-10-26T01:03:34;101410.75;;;6.33;100.00
10064;BME280;5071;52.360;13.134;2022-10-26T01:08:37;101406.03;;;6.13;100.00
10064;BME280;5071;52.360;13.134;2022-10-26T01:13:42;101404.44;;;6.25;100.00
10064;BME280;5071;52.360;13.134;2022-10-26T01:18:51;101404.41;;;6.21;100.00
10064;BME280;5071;52.360;13.134;2022-10-26T01:24:06;101407.72;;;6.08;100.00
10064;BME280;5071;52.360;13.134;2022-10-26T01:29:45;101404.78;;;5.94;100.00
10064;BME280;5071;52.360;13.134;2022-10-26T01:34:55;101398.66;;;5.94;100.00
10064;BME280;5071;52.360;13.134;2022-10-26T01:40:07;101398.63;;;5.92;100.00
10064;BME280;5071;52.360;13.134;2022-10-26T01:45:11;101393.28;;;5.88;100.00
10064;BME280;5071;52.360;13.134;2022-10-26T01:50:17;101393.44;;;5.95;100.00
10064;BME280;5071;52.360;13.134;2022-10-26T01:55:48;101395.91;;;5.88;100.00
10064;BME280;5071;52.360;13.134;2022-10-26T02:00:57;101396.63;;;5.79;100.00
10064;BME280;5071;52.360;13.134;2022-10-26T02:06:05;101393.06;;;5.75;100.00
10064;BME280;5071;52.360;13.134;2022-10-26T02:11:18;101401.06;;;5.81;100.00
10064;BME280;5071;52.360;13.134;2022-10-26T02:16:29;101394.78;;;5.73;100.00
10064;BME280;5071;52.360;13.134;2022-10-26T02:21:38;101409.09;;;5.88;100.00
10064;BME280;5071;52.360;13.134;2022-10-26T02:26:45;101391.59;;;5.93;100.00
10064;BME280;5071;52.360;13.134;2022-10-26T02:31:49;101398.44;;;5.83;100.00
10064;BME280;5071;52.360;13.134;2022-10-26T02:36:56;101387.06;;;5.85;100.00
10064;BME280;5071;52.360;13.134;2022-10-26T02:42:01;101388.81;;;5.85;100.00
10064;BME280;5071;52.360;13.134;2022-10-26T02:47:05;101387.84;;;5.78;100.00
10064;BME280;5071;52.360;13.134;2022-10-26T02:52:16;101385.91;;;5.68;100.00
10064;BME280;5071;52.360;13.134;2022-10-26T02:57:23;101386.69;;;5.64;100.00
10064;BME280;5071;52.360;13.134;2022-10-26T03:02:27;101395.44;;;5.61;100.00
10064;BME280;5071;52.360;13.134;2022-10-26T03:07:30;101397.13;;;5.58;100.00
10064;BME280;5071;52.360;13.134;2022-10-26T03:12:32;101403.34;;;5.61;100.00
10064;BME280;5071;52.360;13.134;2022-10-26T03:17:34;101399.75;;;5.58;100.00
10064;BME280;5071;52.360;13.134;2022-10-26T03:22:38;101393.53;;;5.53;100.00
10064;BME280;5071;52.360;13.134;2022-10-26T03:27:39;101394.22;;;5.42;100.00
10064;BME280;5071;52.360;13.134;2022-10-26T03:32:41;101392.53;;;5.48;100.00
10064;BME280;5071;52.360;13.134;2022-10-26T03:37:45;101381.56;;;5.24;100.00
10064;BME280;5071;52.360;13.134;2022-10-26T03:42:47;101392.34;;;5.38;100.00
10064;BME280;5071;52.360;13.134;2022-10-26T03:47:50;101402.66;;;5.26;100.00
10064;BME280;5071;52.360;13.134;2022-10-26T03:52:53;101402.59;;;5.23;100.00
10064;BME280;5071;52.360;13.134;2022-10-26T03:57:55;101402.19;;;5.47;100.00
10064;BME280;5071;52.360;13.134;2022-10-26T04:02:58;101398.78;;;5.53;100.00
10064;BME280;5071;52.360;13.134;2022-10-26T04:08:02;101402.28;;;5.53;100.00
10064;BME280;5071;52.360;13.134;2022-10-26T04:13:04;101403.94;;;5.47;100.00
10064;BME280;5071;52.360;13.134;2022-10-26T04:18:08;101407.31;;;5.39;100.00
10064;BME280;5071;52.360;13.134;2022-10-26T04:23:14;101411.59;;;5.34;100.00
10064;BME280;5071;52.360;13.134;2022-10-26T04:28:16;101403.47;;;5.23;100.00
10064;BME280;5071;52.360;13.134;2022-10-26T04:33:18;101400.75;;;5.19;100.00
10064;BME280;5071;52.360;13.134;2022-10-26T04:38:21;101405.00;;;5.12;100.00
10064;BME280;5071;52.360;13.134;2022-10-26T04:43:23;101399.72;;;5.11;100.00
10064;BME280;5071;52.360;13.134;2022-10-26T04:48:25;101414.72;;;5.15;100.00
10064;BME280;5071;52.360;13.134;2022-10-26T04:53:28;101409.31;;;5.09;100.00
10064;BME280;5071;52.360;13.134;2022-10-26T04:58:30;101398.78;;;5.09;100.00
10064;BME280;5071;52.360;13.134;2022-10-26T05:03:33;101399.50;;;5.00;100.00
10064;BME280;5071;52.360;13.134;2022-10-26T05:08:36;101389.78;;;4.97;100.00
10064;BME280;5071;52.360;13.134;2022-10-26T05:13:38;101396.75;;;4.95;100.00
10064;BME280;5071;52.360;13.134;2022-10-26T05:18:40;101400.38;;;5.00;100.00
10064;BME280;5071;52.360;13.134;2022-10-26T05:23:44;101402.78;;;4.90;100.00
10064;BME280;5071;52.360;13.134;2022-10-26T05:28:46;101398.53;;;4.96;100.00
10064;BME280;5071;52.360;13.134;2022-10-26T05:33:48;101393.09;;;4.87;100.00
10064;BME280;5071;52.360;13.134;2022-10-26T05:38:52;101390.66;;;4.96;100.00
10064;BME280;5071;52.360;13.134;2022-10-26T05:43:54;101400.59;;;5.11;100.00
10064;BME280;5071;52.360;13.134;2022-10-26T05:48:56;101403.25;;;5.11;100.00
10064;BME280;5071;52.360;13.134;2022-10-26T05:54:00;101409.50;;;5.18;100.00
10064;BME280;5071;52.360;13.134;2022-10-26T05:59:03;101415.72;;;5.21;100.00
10064;BME280;5071;52.360;13.134;2022-10-26T06:04:13;101417.38;;;5.16;100.00
10064;BME280;5071;52.360;13.134;2022-10-26T06:09:20;101411.38;;;5.22;100.00
10064;BME280;5071;52.360;13.134;2022-10-26T06:14:23;101416.63;;;5.23;100.00
10064;BME280;5071;52.360;13.134;2022-10-26T06:19:32;101413.19;;;5.26;100.00
10064;BME280;5071;52.360;13.134;2022-10-26T06:24:49;101416.94;;;5.37;100.00
10064;BME280;5071;52.360;13.134;2022-10-26T06:29:57;101416.19;;;5.44;100.00
10064;BME280;5071;52.360;13.134;2022-10-26T06:35:10;101413.56;;;5.46;100.00
10064;BME280;5071;52.360;13.134;2022-10-26T06:40:17;101423.38;;;5.53;100.00
10064;BME280;5071;52.360;13.134;2022-10-26T06:45:20;101424.41;;;5.61;100.00
10064;BME280;5071;52.360;13.134;2022-10-26T06:50:30;101427.06;;;5.61;100.00
10064;BME280;5071;52.360;13.134;2022-10-26T06:55:40;101423.53;;;5.62;100.00
10064;BME280;5071;52.360;13.134;2022-10-26T07:00:43;101424.66;;;5.75;100.00
10064;BME280;5071;52.360;13.134;2022-10-26T07:05:47;101425.75;;;5.87;100.00
10064;BME280;5071;52.360;13.134;2022-10-26T07:10:51;101437.50;;;6.04;100.00
10064;BME280;5071;52.360;13.134;2022-10-26T07:15:53;101432.50;;;6.19;100.00
10064;BME280;5071;52.360;13.134;2022-10-26T07:20:57;101440.69;;;6.36;100.00
10064;BME280;5071;52.360;13.134;2022-10-26T07:26:00;101439.19;;;6.54;100.00
10064;BME280;5071;52.360;13.134;2022-10-26T07:31:03;101438.63;;;6.75;100.00
10064;BME280;5071;52.360;13.134;2022-10-26T07:36:05;101444.25;;;6.99;100.00
10064;BME280;5071;52.360;13.134;2022-10-26T07:41:08;101452.59;;;7.33;100.00
10064;BME280;5071;52.360;13.134;2022-10-26T07:46:11;101458.31;;;7.69;100.00
10064;BME280;5071;52.360;13.134;2022-10-26T07:51:13;101452.47;;;8.02;100.00
10064;BME280;5071;52.360;13.134;2022-10-26T07:56:17;101446.53;;;8.26;100.00
10064;BME280;5071;52.360;13.134;2022-10-26T08:01:19;101451.19;;;8.53;100.00
10064;BME280;5071;52.360;13.134;2022-10-26T08:06:23;101452.25;;;8.83;100.00
10064;BME280;5071;52.360;13.134;2022-10-26T08:11:27;101460.34;;;9.08;100.00
10064;BME280;5071;52.360;13.134;2022-10-26T08:16:28;101453.41;;;9.34;100.00
10064;BME280;5071;52.360;13.134;2022-10-26T08:21:30;101450.84;;;9.62;100.00
10064;BME280;5071;52.360;13.134;2022-10-26T08:26:49;101461.53;;;9.76;100.00
10064;BME280;5071;52.360;13.134;2022-10-26T08:31:51;101458.91;;;10.05;100.00
10064;BME280;5071;52.360;13.134;2022-10-26T08:36:53;101451.88;;;10.29;100.00
10064;BME280;5071;52.360;13.134;2022-10-26T08:42:01;101443.91;;;10.54;99.14
10064;BME280;5071;52.360;13.134;2022-10-26T08:47:08;101450.06;;;10.80;97.74
10064;BME280;5071;52.360;13.134;2022-10-26T08:52:14;101446.47;;;11.06;96.38
10064;BME280;5071;52.360;13.134;2022-10-26T08:57:24;101442.81;;;11.35;95.09
10064;BME280;5071;52.360;13.134;2022-10-26T09:02:26;101456.03;;;11.55;94.64
10064;BME280;5071;52.360;13.134;2022-10-26T09:13:00;101440.69;;;12.04;91.46
10064;BME280;5071;52.360;13.134;2022-10-26T09:18:12;101454.63;;;12.36;90.58
10064;BME280;5071;52.360;13.134;2022-10-26T09:23:30;101460.69;;;12.55;89.91
10064;BME280;5071;52.360;13.134;2022-10-26T09:28:36;101437.31;;;12.84;89.60
10064;BME280;5071;52.360;13.134;2022-10-26T09:33:39;101452.00;;;13.21;88.41
10064;BME280;5071;52.360;13.134;2022-10-26T09:38:45;101446.16;;;13.63;86.38
10064;BME280;5071;52.360;13.134;2022-10-26T09:43:56;101456.34;;;13.98;85.31
10064;BME280;5071;52.360;13.134;2022-10-26T09:49:04;101454.25;;;14.17;83.42
10064;BME280;5071;52.360;13.134;2022-10-26T09:54:13;101460.66;;;14.08;82.59
10064;BME280;5071;52.360;13.134;2022-10-26T09:59:20;101466.91;;;14.62;81.27
10064;BME280;5071;52.360;13.134;2022-10-26T10:04:23;101471.75;;;19.18;63.15
10064;BME280;5071;52.360;13.134;2022-10-26T10:09:25;101467.63;;;22.44;53.38
10064;BME280;5071;52.360;13.134;2022-10-26T10:14:30;101471.63;;;25.71;44.34
10064;BME280;5071;52.360;13.134;2022-10-26T10:19:38;101470.75;;;25.70;41.81
10064;BME280;5071;52.360;13.134;2022-10-26T10:24:41;101465.41;;;25.83;42.54
10064;BME280;5071;52.360;13.134;2022-10-26T10:29:46;101461.25;;;27.12;38.41
10064;BME280;5071;52.360;13.134;2022-10-26T10:34:50;101451.44;;;26.84;40.39
10064;BME280;5071;52.360;13.134;2022-10-26T10:39:56;101458.16;;;27.94;37.62
10064;BME280;5071;52.360;13.134;2022-10-26T10:45:01;101452.34;;;26.57;39.60
10064;BME280;5071;52.360;13.134;2022-10-26T10:50:10;101446.53;;;26.89;39.00
10064;BME280;5071;52.360;13.134;2022-10-26T10:55:19;101443.06;;;25.78;40.62
10064;BME280;5071;52.360;13.134;2022-10-26T11:00:23;101453.19;;;27.62;37.96
10064;BME280;5071;52.360;13.134;2022-10-26T11:05:37;101441.44;;;26.57;40.58
10064;BME280;5071;52.360;13.134;2022-10-26T11:10:44;101439.56;;;23.32;46.48
10064;BME280;5071;52.360;13.134;2022-10-26T11:16:02;101439.19;;;21.42;53.06
10064;BME280;5071;52.360;13.134;2022-10-26T11:21:14;101435.75;;;20.13;57.01
10064;BME280;5071;52.360;13.134;2022-10-26T11:26:23;101429.25;;;18.77;60.75
10064;BME280;5071;52.360;13.134;2022-10-26T11:31:32;101429.72;;;18.10;63.38
10064;BME280;5071;52.360;13.134;2022-10-26T11:36:37;101418.78;;;18.43;64.15
10064;BME280;5071;52.360;13.134;2022-10-26T11:41:46;101413.53;;;18.40;63.44
10064;BME280;5071;52.360;13.134;2022-10-26T11:46:54;101411.38;;;18.50;63.65
10064;BME280;5071;52.360;13.134;2022-10-26T11:52:01;101401.09;;;18.62;65.49
10064;BME280;5071;52.360;13.134;2022-10-26T11:57:08;101403.91;;;18.58;63.75
10064;BME280;5071;52.360;13.134;2022-10-26T12:02:14;101400.81;;;18.45;64.10
10064;BME280;5071;52.360;13.134;2022-10-26T12:07:22;101404.16;;;19.02;63.91
10064;BME280;5071;52.360;13.134;2022-10-26T12:12:32;101401.31;;;19.30;63.20
10064;BME280;5071;52.360;13.134;2022-10-26T12:17:44;101399.91;;;19.20;61.91
10064;BME280;5071;52.360;13.134;2022-10-26T12:22:49;101399.22;;;19.15;62.11
10064;BME280;5071;52.360;13.134;2022-10-26T12:27:54;101394.41;;;19.23;61.50
10064;BME280;5071;52.360;13.134;2022-10-26T12:32:59;101399.78;;;19.47;60.41
10064;BME280;5071;52.360;13.134;2022-10-26T12:38:25;101414.75;;;19.54;59.56
10064;BME280;5071;52.360;13.134;2022-10-26T12:43:37;101412.28;;;19.71;58.88
10064;BME280;5071;52.360;13.134;2022-10-26T12:48:43;101408.44;;;19.31;58.90
10064;BME280;5071;52.360;13.134;2022-10-26T12:53:49;101410.50;;;19.25;59.59
10064;BME280;5071;52.360;13.134;2022-10-26T12:59:15;101415.94;;;19.47;60.25
10064;BME280;5071;52.360;13.134;2022-10-26T13:04:51;101411.63;;;19.19;60.75
10064;BME280;5071;52.360;13.134;2022-10-26T13:10:02;101405.28;;;19.20;61.64
10064;BME280;5071;52.360;13.134;2022-10-26T13:15:18;101409.63;;;19.48;62.08
10064;BME280;5071;52.360;13.134;2022-10-26T13:20:23;101400.75;;;19.22;62.13
10064;BME280;5071;52.360;13.134;2022-10-26T13:25:27;101405.66;;;19.11;63.05
10064;BME280;5071;52.360;13.134;2022-10-26T13:30:42;101408.69;;;19.01;62.53
10064;BME280;5071;52.360;13.134;2022-10-26T13:35:46;101401.06;;;18.89;62.89
10064;BME280;5071;52.360;13.134;2022-10-26T13:40:52;101406.19;;;18.95;64.11
10064;BME280;5071;52.360;13.134;2022-10-26T13:45:58;101414.22;;;18.97;63.67
10064;BME280;5071;52.360;13.134;2022-10-26T13:51:10;101407.72;;;19.02;63.40
10064;BME280;5071;52.360;13.134;2022-10-26T13:56:21;101416.63;;;19.04;63.98
10064;BME280;5071;52.360;13.134;2022-10-26T14:01:26;101423.72;;;19.31;63.95
10064;BME280;5071;52.360;13.134;2022-10-26T14:06:32;101417.97;;;18.93;64.22
10064;BME280;5071;52.360;13.134;2022-10-26T14:11:41;101417.25;;;18.61;65.77
10064;BME280;5071;52.360;13.134;2022-10-26T14:16:44;101415.91;;;18.49;66.86
10064;BME280;5071;52.360;13.134;2022-10-26T14:21:49;101425.28;;;18.62;65.69
10064;BME280;5071;52.360;13.134;2022-10-26T14:26:51;101436.56;;;18.47;66.94
10064;BME280;5071;52.360;13.134;2022-10-26T14:31:53;101437.72;;;18.13;69.06
10064;BME280;5071;52.360;13.134;2022-10-26T14:36:58;101433.47;;;17.76;70.56
10064;BME280;5071;52.360;13.134;2022-10-26T14:42:08;101436.91;;;17.52;71.85
10064;BME280;5071;52.360;13.134;2022-10-26T14:47:12;101441.00;;;17.34;73.02
10064;BME280;5071;52.360;13.134;2022-10-26T14:52:22;101444.84;;;17.25;73.30
10064;BME280;5071;52.360;13.134;2022-10-26T14:57:30;101449.44;;;17.51;73.03
10064;BME280;5071;52.360;13.134;2022-10-26T15:02:33;101455.22;;;17.67;72.61
10064;BME280;5071;52.360;13.134;2022-10-26T15:07:36;101446.16;;;17.71;72.14
10064;BME280;5071;52.360;13.134;2022-10-26T15:12:39;101438.59;;;17.54;72.57
10064;BME280;5071;52.360;13.134;2022-10-26T15:17:42;101454.53;;;17.31;72.92
10064;BME280;5071;52.360;13.134;2022-10-26T15:22:52;101456.72;;;17.16;73.84
10064;BME280;5071;52.360;13.134;2022-10-26T15:28:07;101470.81;;;16.92;74.67
10064;BME280;5071;52.360;13.134;2022-10-26T15:33:18;101463.63;;;16.58;76.76
10064;BME280;5071;52.360;13.134;2022-10-26T15:38:21;101472.41;;;16.27;78.13
10064;BME280;5071;52.360;13.134;2022-10-26T15:43:23;101476.03;;;15.87;79.55
10064;BME280;5071;52.360;13.134;2022-10-26T15:48:27;101463.44;;;15.48;80.94
10064;BME280;5071;52.360;13.134;2022-10-26T15:53:34;101475.78;;;15.13;82.32
10064;BME280;5071;52.360;13.134;2022-10-26T15:58:36;101474.41;;;14.92;83.63
10064;BME280;5071;52.360;13.134;2022-10-26T16:03:38;101484.66;;;14.66;85.17
10064;BME280;5071;52.360;13.134;2022-10-26T16:08:44;101476.97;;;14.46;86.02
10064;BME280;5071;52.360;13.134;2022-10-26T16:13:48;101470.66;;;14.48;87.68
10064;BME280;5071;52.360;13.134;2022-10-26T16:18:55;101473.47;;;14.41;88.27
10064;BME280;5071;52.360;13.134;2022-10-26T16:24:19;101481.47;;;14.42;88.66
10064;BME280;5071;52.360;13.134;2022-10-26T16:29:21;101488.91;;;14.23;89.51
10064;BME280;5071;52.360;13.134;2022-10-26T16:34:24;101480.91;;;14.20;89.71
10064;BME280;5071;52.360;13.134;2022-10-26T16:39:27;101490.72;;;14.19;89.68
10064;BME280;5071;52.360;13.134;2022-10-26T16:44:30;101505.09;;;14.09;90.86
10064;BME280;5071;52.360;13.134;2022-10-26T16:49:32;101499.06;;;14.55;90.17
10064;BME280;5071;52.360;13.134;2022-10-26T16:54:35;101509.06;;;14.95;87.08
10064;BME280;5071;52.360;13.134;2022-10-26T16:59:37;101500.84;;;15.06;86.04
10064;BME280;5071;52.360;13.134;2022-10-26T17:04:39;101514.50;;;14.91;85.26
10064;BME280;5071;52.360;13.134;2022-10-26T17:09:42;101511.28;;;14.72;86.94
10064;BME280;5071;52.360;13.134;2022-10-26T17:14:44;101520.72;;;14.93;86.59
10064;BME280;5071;52.360;13.134;2022-10-26T17:19:46;101536.47;;;15.08;85.22
10064;BME280;5071;52.360;13.134;2022-10-26T17:24:50;101537.22;;;15.16;85.25
10064;BME280;5071;52.360;13.134;2022-10-26T17:29:52;101548.78;;;15.19;85.00
10064;BME280;5071;52.360;13.134;2022-10-26T17:34:54;101547.69;;;15.27;84.13
10064;BME280;5071;52.360;13.134;2022-10-26T17:39:58;101553.47;;;15.04;84.12
10064;BME280;5071;52.360;13.134;2022-10-26T17:45:00;101560.56;;;15.05;84.96
10064;BME280;5071;52.360;13.134;2022-10-26T17:50:02;101565.06;;;15.03;84.85
10064;BME280;5071;52.360;13.134;2022-10-26T17:55:06;101571.75;;;14.79;85.42
10064;BME280;5071;52.360;13.134;2022-10-26T18:00:11;101574.44;;;14.77;86.08
10064;BME280;5071;52.360;13.134;2022-10-26T18:05:13;101586.84;;;14.82;85.81
10064;BME280;5071;52.360;13.134;2022-10-26T18:10:16;101594.13;;;14.73;85.86
10064;BME280;5071;52.360;13.134;2022-10-26T18:15:39;101594.03;;;14.76;86.23
10064;BME280;5071;52.360;13.134;2022-10-26T18:20:41;101602.22;;;14.66;85.81
10064;BME280;5071;52.360;13.134;2022-10-26T18:25:46;101620.22;;;14.53;86.80
10064;BME280;5071;52.360;13.134;2022-10-26T18:30:47;101621.25;;;14.43;86.74
10064;BME280;5071;52.360;13.134;2022-10-26T18:35:49;101618.19;;;14.04;87.78
10064;BME280;5071;52.360;13.134;2022-10-26T18:40:53;101619.34;;;13.81;88.22
10064;BME280;5071;52.360;13.134;2022-10-26T18:46:01;101639.09;;;13.66;89.00
10064;BME280;5071;52.360;13.134;2022-10-26T18:51:05;101633.13;;;13.44;90.23
10064;BME280;5071;52.360;13.134;2022-10-26T18:56:10;101632.34;;;13.27;90.00
10064;BME280;5071;52.360;13.134;2022-10-26T19:01:15;101628.03;;;13.12;90.71
10064;BME280;5071;52.360;13.134;2022-10-26T19:06:19;101632.59;;;12.97;91.18
10064;BME280;5071;52.360;13.134;2022-10-26T19:11:25;101631.81;;;12.84;91.67
10064;BME280;5071;52.360;13.134;2022-10-26T19:16:29;101639.91;;;12.71;92.38
10064;BME280;5071;52.360;13.134;2022-10-26T19:21:49;101640.94;;;12.47;92.36
10064;BME280;5071;52.360;13.134;2022-10-26T19:26:53;101644.59;;;12.29;93.47
10064;BME280;5071;52.360;13.134;2022-10-26T19:31:55;101658.81;;;12.23;93.23
10064;BME280;5071;52.360;13.134;2022-10-26T19:36:57;101659.75;;;12.08;93.10
10064;BME280;5071;52.360;13.134;2022-10-26T19:42:01;101662.44;;;12.00;93.13
10064;BME280;5071;52.360;13.134;2022-10-26T19:47:02;101663.34;;;11.99;94.22
10064;BME280;5071;52.360;13.134;2022-10-26T19:52:04;101676.69;;;11.90;94.38
10064;BME280;5071;52.360;13.134;2022-10-26T19:57:08;101687.28;;;11.84;94.20
10064;BME280;5071;52.360;13.134;2022-10-26T20:02:10;101692.66;;;11.62;93.82
10064;BME280;5071;52.360;13.134;2022-10-26T20:07:11;101686.47;;;11.53;94.34
10064;BME280;5071;52.360;13.134;2022-10-26T20:12:14;101693.56;;;11.46;94.72
10064;BME280;5071;52.360;13.134;2022-10-26T20:17:16;101719.28;;;11.47;95.33
10064;BME280;5071;52.360;13.134;2022-10-26T20:22:18;101718.38;;;11.33;95.15
10064;BME280;5071;52.360;13.134;2022-10-26T20:27:21;101721.00;;;11.20;95.94
10064;BME280;5071;52.360;13.134;2022-10-26T20:32:23;101724.56;;;11.04;96.25
10064;BME280;5071;52.360;13.134;2022-10-26T20:37:25;101727.22;;;10.96;96.28
10064;BME280;5071;52.360;13.134;2022-10-26T20:42:29;101731.59;;;10.83;96.56
10064;BME280;5071;52.360;13.134;2022-10-26T20:47:32;101726.25;;;10.74;96.83
10064;BME280;5071;52.360;13.134;2022-10-26T20:52:37;101736.88;;;10.74;96.79
10064;BME280;5071;52.360;13.134;2022-10-26T20:57:49;101734.19;;;10.71;97.11
10064;BME280;5071;52.360;13.134;2022-10-26T21:02:53;101733.28;;;10.54;96.53
10064;BME280;5071;52.360;13.134;2022-10-26T21:07:54;101742.09;;;10.46;97.28
10064;BME280;5071;52.360;13.134;2022-10-26T21:12:57;101753.56;;;10.36;97.65
10064;BME280;5071;52.360;13.134;2022-10-26T21:17:59;101764.94;;;10.20;97.71
10064;BME280;5071;52.360;13.134;2022-10-26T21:23:01;101758.75;;;10.24;97.96
10064;BME280;5071;52.360;13.134;2022-10-26T21:28:04;101760.50;;;10.16;97.49
10064;BME280;5071;52.360;13.134;2022-10-26T21:33:06;101768.31;;;10.00;97.81
10064;BME280;5071;52.360;13.134;2022-10-26T21:38:08;101780.69;;;9.93;98.10
10064;BME280;5071;52.360;13.134;2022-10-26T21:43:11;101784.13;;;9.85;98.28
10064;BME280;5071;52.360;13.134;2022-10-26T21:48:13;101786.69;;;9.74;98.25
10064;BME280;5071;52.360;13.134;2022-10-26T21:53:15;101784.91;;;9.70;98.76
10064;BME280;5071;52.360;13.134;2022-10-26T21:58:18;101784.94;;;9.71;98.93
10064;BME280;5071;52.360;13.134;2022-10-26T22:03:20;101791.13;;;9.70;99.83
10064;BME280;5071;52.360;13.134;2022-10-26T22:08:22;101787.53;;;9.68;99.27
10064;BME280;5071;52.360;13.134;2022-10-26T22:13:25;101788.38;;;9.63;99.55
10064;BME280;5071;52.360;13.134;2022-10-26T22:18:27;101792.72;;;9.53;99.65
10064;BME280;5071;52.360;13.134;2022-10-26T22:23:31;101795.34;;;9.48;100.00
10064;BME280;5071;52.360;13.134;2022-10-26T22:28:36;101795.34;;;9.48;100.00
10064;BME280;5071;52.360;13.134;2022-10-26T22:33:43;101799.72;;;9.45;100.00
10064;BME280;5071;52.360;13.134;2022-10-26T22:38:45;101804.06;;;9.38;99.75
10064;BME280;5071;52.360;13.134;2022-10-26T22:43:48;101803.09;;;9.28;99.87
10064;BME280;5071;52.360;13.134;2022-10-26T22:48:52;101803.97;;;9.29;99.84
10064;BME280;5071;52.360;13.134;2022-10-26T22:53:55;101813.63;;;9.22;99.88
10064;BME280;5071;52.360;13.134;2022-10-26T22:58:59;101812.72;;;9.20;99.98
10064;BME280;5071;52.360;13.134;2022-10-26T23:04:01;101811.72;;;9.09;100.00
10064;BME280;5071;52.360;13.134;2022-10-26T23:09:04;101829.44;;;9.13;100.00
10064;BME280;5071;52.360;13.134;2022-10-26T23:14:07;101827.53;;;9.01;99.99
10064;BME280;5071;52.360;13.134;2022-10-26T23:19:09;101835.41;;;8.93;100.00
10064;BME280;5071;52.360;13.134;2022-10-26T23:24:11;101841.59;;;8.99;100.00
10064;BME280;5071;52.360;13.134;2022-10-26T23:29:14;101852.19;;;8.95;100.00
10064;BME280;5071;52.360;13.134;2022-10-26T23:34:16;101853.94;;;8.93;100.00
10064;BME280;5071;52.360;13.134;2022-10-26T23:39:18;101852.19;;;8.99;100.00
10064;BME280;5071;52.360;13.134;2022-10-26T23:44:21;101850.28;;;8.85;100.00
10064;BME280;5071;52.360;13.134;2022-10-26T23:49:22;101860.97;;;8.94;100.00
10064;BME280;5071;52.360;13.134;2022-10-26T23:54:24;101862.69;;;8.89;100.00
10064;BME280;5071;52.360;13.134;2022-10-26T23:59:27;101863.50;;;8.84;100.00
